createdAt,value
2023-05-02T00:03:13.803Z,1.73
2023-05-02T00:08:35.884Z,2.58
2023-05-02T00:13:58.633Z,2.63
2023-05-02T00:19:20.528Z,2.33
2023-05-02T00:24:42.396Z,4.15
2023-05-02T00:30:04.663Z,3.75
2023-05-02T00:35:26.491Z,3.30
2023-05-02T00:40:51.427Z,2.75
2023-05-02T00:46:13.863Z,3.60
2023-05-02T00:51:35.732Z,3.97
2023-05-02T00:56:57.854Z,3.30
2023-05-02T01:02:51.531Z,2.72
2023-05-02T01:08:34.532Z,4.13
2023-05-02T01:13:59.417Z,2.63
2023-05-02T01:19:35.712Z,2.77
2023-05-02T01:25:11.920Z,2.92
2023-05-02T01:35:57.826Z,3.58
2023-05-02T01:41:21.183Z,3.60
2023-05-02T01:46:44.787Z,4.13
2023-05-02T01:52:11.830Z,3.55
2023-05-02T01:57:33.771Z,3.25
2023-05-02T02:02:57.811Z,2.90
2023-05-02T02:08:19.696Z,2.55
2023-05-02T02:13:47.443Z,3.22
2023-05-02T02:19:13.721Z,2.83
2023-05-02T02:24:40.242Z,2.60
2023-05-02T02:30:02.313Z,3.00
2023-05-02T02:35:31.853Z,2.80
2023-05-02T02:40:57.819Z,2.72
2023-05-02T02:47:12.452Z,2.30
2023-05-02T02:52:46.365Z,2.80
2023-05-02T02:58:20.938Z,2.47
2023-05-02T03:03:44.717Z,2.83
2023-05-02T03:09:07.018Z,2.78
2023-05-02T03:14:28.868Z,3.17
2023-05-02T03:19:50.805Z,3.13
2023-05-02T03:25:12.810Z,2.78
2023-05-02T03:30:35.490Z,3.03
2023-05-02T03:35:57.275Z,3.10
2023-05-02T03:41:21.189Z,2.90
2023-05-02T03:46:43.487Z,2.95
2023-05-02T03:52:05.342Z,3.00
2023-05-02T03:57:30.682Z,2.63
2023-05-02T04:02:52.816Z,2.92
2023-05-02T04:08:14.959Z,2.60
2023-05-02T04:13:36.672Z,2.50
2023-05-02T04:18:59.282Z,2.35
2023-05-02T04:24:21.155Z,2.65
2023-05-02T04:29:43.035Z,2.45
2023-05-02T04:35:05.763Z,2.70
2023-05-02T04:40:27.645Z,2.17
2023-05-02T04:45:49.420Z,2.70
2023-05-02T04:51:11.403Z,2.60
2023-05-02T04:56:33.192Z,2.92
2023-05-02T05:01:54.966Z,3.50
2023-05-02T05:07:16.811Z,2.10
2023-05-02T05:12:38.673Z,1.90
2023-05-02T05:18:00.441Z,1.95
2023-05-02T05:23:22.343Z,1.70
2023-05-02T05:28:44.788Z,1.63
2023-05-02T05:34:06.998Z,2.08
2023-05-02T05:39:28.854Z,1.70
2023-05-02T05:44:51.844Z,1.70
2023-05-02T05:50:13.639Z,1.85
2023-05-02T05:55:37.377Z,1.50
2023-05-02T06:00:59.329Z,1.50
2023-05-02T06:06:21.489Z,1.48
2023-05-02T06:11:43.372Z,1.40
2023-05-02T06:17:05.539Z,1.00
2023-05-02T06:22:27.513Z,1.30
2023-05-02T06:27:49.545Z,1.10
2023-05-02T06:33:12.618Z,1.17
2023-05-02T06:38:34.435Z,0.90
2023-05-02T06:43:56.308Z,0.93
2023-05-02T06:49:18.076Z,1.15
2023-05-02T06:54:40.169Z,1.05
2023-05-02T07:00:02.245Z,1.00
2023-05-02T07:05:24.392Z,0.80
2023-05-02T07:10:46.281Z,1.00
2023-05-02T07:16:08.428Z,1.00
2023-05-02T07:21:30.658Z,0.73
2023-05-02T07:26:52.470Z,1.02
2023-05-02T07:32:14.298Z,1.00
2023-05-02T07:37:36.714Z,1.00
2023-05-02T07:42:58.989Z,0.60
2023-05-02T07:48:21.049Z,0.70
2023-05-02T07:53:42.848Z,0.70
2023-05-02T07:59:05.727Z,0.90
2023-05-02T08:04:27.775Z,0.75
2023-05-02T08:09:49.716Z,0.65
2023-05-02T08:15:16.107Z,0.77
2023-05-02T08:20:37.943Z,0.90
2023-05-02T08:25:59.763Z,0.85
2023-05-02T08:31:21.857Z,1.00
2023-05-02T08:36:43.710Z,0.60
2023-05-02T08:42:08.929Z,0.70
2023-05-02T08:47:32.160Z,0.90
2023-05-02T08:52:54.390Z,0.80
2023-05-02T08:58:17.516Z,0.75
2023-05-02T09:03:40.898Z,0.90
2023-05-02T09:09:03.450Z,0.90
2023-05-02T09:14:25.365Z,0.98
2023-05-02T09:19:47.987Z,0.80
2023-05-02T09:25:10.460Z,0.70
2023-05-02T09:30:32.997Z,0.80
2023-05-02T09:35:56.071Z,0.80
2023-05-02T09:41:22.466Z,0.88
2023-05-02T09:46:48.940Z,0.80
2023-05-02T09:52:13.153Z,1.05
2023-05-02T09:57:41.952Z,0.90
2023-05-02T10:03:07.100Z,0.80
2023-05-02T10:08:29.357Z,0.70
2023-05-02T10:13:52.791Z,0.90
2023-05-02T10:19:23.864Z,0.90
2023-05-02T10:24:49.988Z,1.05
2023-05-02T10:30:14.370Z,1.02
2023-05-02T10:35:37.892Z,1.20
2023-05-02T10:41:03.719Z,0.82
2023-05-02T10:46:37.238Z,1.10
2023-05-02T10:51:59.290Z,1.20
2023-05-02T10:57:21.559Z,2.80
2023-05-02T11:02:43.516Z,2.40
2023-05-02T11:08:22.222Z,2.08
2023-05-02T11:13:51.516Z,1.75
2023-05-02T11:19:13.317Z,1.60
2023-05-02T11:24:42.921Z,1.48
2023-05-02T11:30:09.451Z,1.58
2023-05-02T11:35:32.325Z,1.42
2023-05-02T11:40:59.764Z,1.55
2023-05-02T11:46:21.911Z,1.38
2023-05-02T11:51:44.016Z,1.23
2023-05-02T11:57:05.879Z,1.60
2023-05-02T12:02:37.729Z,1.00
2023-05-02T12:08:01.451Z,1.35
2023-05-02T12:13:25.514Z,1.20
2023-05-02T12:18:48.430Z,1.08
2023-05-02T12:24:11.162Z,1.08
2023-05-02T12:29:44.179Z,1.00
2023-05-02T12:35:21.069Z,0.77
2023-05-02T12:40:58.717Z,1.10
2023-05-02T12:46:21.019Z,1.13
2023-05-02T12:51:54.207Z,0.90
2023-05-02T12:57:26.574Z,0.90
2023-05-02T13:02:48.428Z,1.10
2023-05-02T13:08:10.423Z,1.45
2023-05-02T13:13:33.005Z,1.10
2023-05-02T13:18:55.123Z,1.23
2023-05-02T13:24:17.814Z,1.38
2023-05-02T13:29:39.594Z,1.38
2023-05-02T13:35:01.622Z,1.17
2023-05-02T13:40:23.415Z,2.92
2023-05-02T13:45:45.501Z,2.75
2023-05-02T13:51:08.015Z,2.28
2023-05-02T13:56:29.863Z,2.88
2023-05-02T14:01:51.886Z,2.92
2023-05-02T14:07:13.812Z,3.75
2023-05-02T14:12:35.801Z,4.32
2023-05-02T14:17:57.737Z,3.42
2023-05-02T14:23:19.552Z,2.53
2023-05-02T14:28:41.505Z,2.47
2023-05-02T14:34:03.377Z,2.50
2023-05-02T14:39:25.147Z,2.00
2023-05-02T14:44:47.278Z,1.40
2023-05-02T14:50:09.515Z,1.95
2023-05-02T14:55:35.958Z,1.75
2023-05-02T15:00:57.760Z,1.33
2023-05-02T15:06:19.829Z,1.25
2023-05-02T15:11:42.047Z,1.63
2023-05-02T15:17:03.954Z,1.08
2023-05-02T15:22:26.300Z,1.33
2023-05-02T15:27:48.074Z,1.20
2023-05-02T15:33:10.411Z,1.20
2023-05-02T15:38:34.289Z,1.40
2023-05-02T15:43:57.550Z,1.30
2023-05-02T15:49:19.342Z,1.55
2023-05-02T15:54:41.163Z,1.30
2023-05-02T16:00:03.889Z,1.60
2023-05-02T16:05:26.155Z,1.42
2023-05-02T16:10:47.938Z,1.17
2023-05-02T16:16:09.760Z,1.30
2023-05-02T16:21:32.038Z,1.52
2023-05-02T16:26:53.805Z,0.80
2023-05-02T16:32:15.707Z,0.82
2023-05-02T16:37:37.778Z,0.98
2023-05-02T16:42:59.747Z,0.90
2023-05-02T16:48:23.125Z,1.00
2023-05-02T16:53:46.495Z,1.17
2023-05-02T16:59:08.262Z,1.17
2023-05-02T17:04:30.029Z,1.15
2023-05-02T17:09:51.958Z,1.42
2023-05-02T17:15:16.369Z,1.00
2023-05-02T17:20:38.571Z,0.80
2023-05-02T17:26:00.825Z,1.20
2023-05-02T17:31:23.752Z,1.30
2023-05-02T17:36:46.583Z,0.93
2023-05-02T17:42:08.454Z,0.60
2023-05-02T17:47:30.224Z,1.00
2023-05-02T17:52:52.024Z,1.50
2023-05-02T17:58:14.360Z,1.52
2023-05-02T18:03:36.736Z,1.48
2023-05-02T18:08:59.713Z,1.83
2023-05-02T18:14:21.715Z,1.50
2023-05-02T18:19:44.447Z,1.58
2023-05-02T18:25:06.889Z,1.80
2023-05-02T18:30:29.137Z,1.63
2023-05-02T18:35:51.023Z,1.40
2023-05-02T18:41:13.255Z,1.10
2023-05-02T18:46:35.096Z,1.15
2023-05-02T18:51:56.910Z,1.35
2023-05-02T18:57:18.703Z,1.13
2023-05-02T19:02:40.602Z,1.15
2023-05-02T19:08:02.484Z,1.20
2023-05-02T19:13:27.193Z,1.33
2023-05-02T19:18:52.579Z,1.07
2023-05-02T19:29:36.085Z,1.08
2023-05-02T19:34:58.219Z,1.00
2023-05-02T19:40:20.009Z,1.40
2023-05-02T19:45:42.141Z,1.95
2023-05-02T19:51:05.158Z,1.50
2023-05-02T19:56:27.559Z,1.50
2023-05-02T20:01:50.172Z,1.27
2023-05-02T20:07:11.955Z,1.40
2023-05-02T20:12:34.102Z,1.13
2023-05-02T20:17:58.187Z,0.90
2023-05-02T20:23:20.078Z,1.13
2023-05-02T20:28:42.173Z,0.80
2023-05-02T20:34:04.034Z,1.20
2023-05-02T20:39:26.122Z,1.17
2023-05-02T20:44:47.965Z,1.05
2023-05-02T20:50:09.932Z,1.30
2023-05-02T20:55:31.697Z,1.10
2023-05-02T21:00:54.326Z,1.25
2023-05-02T21:06:16.196Z,0.80
2023-05-02T21:11:38.019Z,0.80
2023-05-02T21:16:59.834Z,0.77
2023-05-02T21:22:22.075Z,1.20
2023-05-02T21:27:44.051Z,0.70
2023-05-02T21:33:06.154Z,1.00
2023-05-02T21:38:28.019Z,0.80
2023-05-02T21:43:49.915Z,0.88
2023-05-02T21:49:11.816Z,0.60
2023-05-02T21:54:33.761Z,1.00
2023-05-02T21:59:55.590Z,0.73
2023-05-02T22:05:17.527Z,0.77
2023-05-02T22:10:42.492Z,0.80
2023-05-02T22:16:04.604Z,0.80
2023-05-02T22:21:27.432Z,0.60
2023-05-02T22:26:50.761Z,0.98
2023-05-02T22:32:12.655Z,0.68
2023-05-02T22:37:34.560Z,0.60
2023-05-02T22:42:56.363Z,0.63
2023-05-02T22:48:18.269Z,0.70
2023-05-02T22:53:40.596Z,0.80
2023-05-02T22:59:02.522Z,0.52
2023-05-02T23:04:24.329Z,0.57
2023-05-02T23:09:46.185Z,0.68
2023-05-02T23:15:08.980Z,0.60
2023-05-02T23:20:30.744Z,0.47
2023-05-02T23:25:52.540Z,0.52
2023-05-02T23:31:14.417Z,0.57
2023-05-02T23:36:36.596Z,0.50
2023-05-02T23:41:58.513Z,0.52
2023-05-02T23:47:20.344Z,0.50
2023-05-02T23:52:42.484Z,0.70
2023-05-02T23:58:04.304Z,0.50
